Midtown, Tennessee
Current Conditions -  °F | °C
As of 8:53 AM on Thursday 18 Dec 2014 (Local Time) from KOQT Reporting Station
Overcast Overcast  
Wind Chill: 35°   Ceiling: 7000
Heat Index: 35°   Visibility: 10mi
Dew Point: 29°   Wind: 0mph
Humidity: 78%   Direction: NA
Pressure: 30.24"   Gusts: NA
Location:  35.9599°N, 84.4439°W
Report Text: KOQT 181353Z AUTO 00000KT 10SM OVC070 02/M02 A3024 RMK AO2 SLP255 T00171017
Loading
Personal Weather Stations






























Interactive Weather Map New forecast layout! Learn more

10-Day Weather Forecast

Advertisements
Track Severe Weather on mobile